To NAV CANADA Home Page Login to a new session Search on AWWS site Feedback and Comments Disclaimer Vers la page française équivalente Tips FAQ What's new on the site To the Forecasts and Observations / NOTAM section To "File a Flight Plan" website Publications and other links Update of the User's profile FIC Telephone Numbers My Weather Data Folder Route Weather Data Regional Weather Data Local Weather Data To the Forecasts and Observations / NOTAM section
Request Generated 03/28/2017 at 02:26:11 UTC . Weather information available at that time is displayed.

METAR/TAF

VANCOUVER INTL/BC    (show WxCam)

METAR CYVR 280200Z 16010KT 20SM -RA FEW030 SCT055 BKN070 OVC100 10/05
A3012 RMK SC2SC2AC2AS2 SLP201=
SPECI CYVR 280145Z 17011G19KT 20SM -RA FEW030 BKN060 OVC090 10/04
A3012 RMK SC2SC3AS3 SLP201=
METAR CYVR 280100Z 18010G16KT 20SM FEW030 BKN090 BKN120 11/05 A3010
RMK SC2AC3AS2 SLP195=
METAR CYVR 280000Z 17014KT 20SM FEW030 SCT060 BKN072 BKN100 OVC250
11/05 A3010 RMK CU2SC1AC3AS1CS1 SLP195=

TAF CYVR 272339Z 2800/2906 16012KT P6SM SCT040 OVC080 TEMPO 2800/2806
P6SM -SHRA
FM280600 14008KT P6SM -RA SCT020 OVC050 TEMPO 2806/2811 BKN020
OVC050
FM281100 12010KT 4SM -RA BR BKN008 OVC015
FM281700 14015G25KT 5SM -RA BR FEW008 OVC020
RMK NXT FCST BY 280300Z=
Your time UTC time
Weather data provided by Environment Canada and NAV CANADA